createdAt,value
2018-09-30T00:00:23.693Z,21.07
2018-09-30T00:01:27.145Z,21.16
2018-09-30T00:02:30.583Z,21.19
2018-09-30T00:03:33.991Z,21.25
2018-09-30T00:04:37.413Z,21.30
2018-09-30T00:05:41.016Z,21.32
2018-09-30T00:06:44.485Z,21.40
2018-09-30T00:07:47.927Z,21.42
2018-09-30T00:08:51.382Z,21.46
2018-09-30T00:09:54.872Z,21.50
2018-09-30T00:10:58.352Z,21.53
2018-09-30T00:12:02.918Z,21.54
2018-09-30T00:13:06.413Z,21.55
2018-09-30T00:14:09.880Z,21.55
2018-09-30T00:15:13.360Z,21.57
2018-09-30T00:16:16.867Z,21.57
2018-09-30T00:17:20.274Z,21.57
2018-09-30T00:18:23.744Z,21.56
2018-09-30T00:19:27.227Z,21.57
2018-09-30T00:20:30.683Z,21.56
2018-09-30T00:21:34.137Z,21.56
2018-09-30T00:22:37.584Z,21.55
2018-09-30T00:23:46.484Z,21.53
2018-09-30T00:24:55.117Z,21.51
2018-09-30T00:27:05.669Z,21.51
2018-09-30T00:28:09.097Z,21.47
2018-09-30T00:29:12.564Z,21.46
2018-09-30T00:30:16.039Z,21.45
2018-09-30T00:31:19.542Z,21.44
2018-09-30T00:32:22.957Z,21.42
2018-09-30T00:33:26.364Z,21.41
2018-09-30T00:34:30.628Z,21.37
2018-09-30T00:35:34.067Z,21.36
2018-09-30T00:36:37.486Z,21.36
2018-09-30T00:37:40.942Z,21.34
2018-09-30T00:38:44.425Z,21.32
2018-09-30T00:39:47.861Z,21.31
2018-09-30T00:40:51.399Z,21.31
2018-09-30T00:41:55.130Z,21.27
2018-09-30T00:42:58.685Z,21.29
2018-09-30T00:44:02.137Z,21.27
2018-09-30T00:45:05.631Z,21.26
2018-09-30T00:46:09.257Z,21.22
2018-09-30T00:47:12.687Z,21.24
2018-09-30T00:48:16.165Z,21.22
2018-09-30T00:49:19.588Z,21.22
2018-09-30T00:50:23.088Z,21.20
2018-09-30T00:51:26.495Z,21.19
2018-09-30T00:52:29.913Z,21.18
2018-09-30T00:53:33.392Z,21.15
2018-09-30T00:54:36.852Z,21.16
2018-09-30T00:55:40.337Z,21.11
2018-09-30T00:56:44.050Z,21.14
2018-09-30T00:57:47.512Z,21.14
2018-09-30T00:58:50.927Z,21.13
2018-09-30T00:59:54.383Z,21.12
2018-09-30T01:00:57.840Z,21.10
2018-09-30T01:02:01.276Z,21.09
2018-09-30T01:03:04.720Z,21.06
2018-09-30T01:04:08.487Z,21.06
2018-09-30T01:05:11.953Z,21.05
2018-09-30T01:06:15.390Z,21.06
2018-09-30T01:07:18.817Z,21.04
2018-09-30T01:08:22.251Z,21.05
2018-09-30T01:09:25.652Z,21.10
2018-09-30T01:10:29.056Z,21.14
2018-09-30T01:11:32.550Z,21.20
2018-09-30T01:12:35.999Z,21.25
2018-09-30T01:13:39.441Z,21.31
2018-09-30T01:14:42.893Z,21.37
2018-09-30T01:15:46.317Z,21.43
2018-09-30T01:16:49.793Z,21.47
2018-09-30T01:17:53.217Z,21.49
2018-09-30T01:18:56.628Z,21.53
2018-09-30T01:20:00.040Z,21.56
2018-09-30T01:21:03.486Z,21.58
2018-09-30T01:22:06.991Z,21.60
2018-09-30T01:23:10.405Z,21.63
2018-09-30T01:24:13.861Z,21.62
2018-09-30T01:25:17.307Z,21.63
2018-09-30T01:26:20.719Z,21.63
2018-09-30T01:27:24.151Z,21.63
2018-09-30T01:28:27.574Z,21.65
2018-09-30T01:29:31.016Z,21.64
2018-09-30T01:30:34.445Z,21.64
2018-09-30T01:31:37.823Z,21.64
2018-09-30T01:32:41.238Z,21.62
2018-09-30T01:33:44.727Z,21.61
2018-09-30T01:34:48.244Z,21.62
2018-09-30T01:35:52.677Z,21.59
2018-09-30T01:36:56.102Z,21.58
2018-09-30T01:37:59.523Z,21.58
2018-09-30T01:39:03.858Z,21.57
2018-09-30T01:40:07.602Z,21.57
2018-09-30T01:41:11.057Z,21.56
2018-09-30T01:42:14.427Z,21.54
2018-09-30T01:43:17.911Z,21.54
2018-09-30T01:44:21.343Z,21.52
2018-09-30T01:45:24.761Z,21.50
2018-09-30T01:46:28.239Z,21.49
2018-09-30T01:47:31.657Z,21.47
2018-09-30T01:48:35.104Z,21.48
2018-09-30T01:49:38.543Z,21.45
2018-09-30T01:50:41.973Z,21.44
2018-09-30T01:51:45.422Z,21.42
2018-09-30T01:52:54.887Z,21.41
2018-09-30T01:53:58.311Z,21.38
2018-09-30T01:55:01.776Z,21.38
2018-09-30T01:56:05.207Z,21.33
2018-09-30T01:57:08.649Z,21.32
2018-09-30T01:58:12.066Z,21.31
2018-09-30T01:59:15.545Z,21.30
2018-09-30T02:00:19.453Z,21.28
2018-09-30T02:01:22.894Z,21.23
2018-09-30T02:02:26.263Z,21.22
2018-09-30T02:03:29.662Z,21.24
2018-09-30T02:04:33.172Z,21.23
2018-09-30T02:05:36.611Z,21.21
2018-09-30T02:06:40.027Z,21.20
2018-09-30T02:07:43.507Z,21.19
2018-09-30T02:08:46.937Z,21.17
2018-09-30T02:09:50.440Z,21.16
2018-09-30T02:10:53.866Z,21.16
2018-09-30T02:11:57.276Z,21.14
2018-09-30T02:13:00.721Z,21.12
2018-09-30T02:14:04.141Z,21.12
2018-09-30T02:15:07.685Z,21.11
2018-09-30T02:16:11.135Z,21.09
2018-09-30T02:17:14.555Z,21.09
2018-09-30T02:18:18.016Z,21.08
2018-09-30T02:19:21.449Z,21.11
2018-09-30T02:20:24.886Z,21.16
2018-09-30T02:21:28.333Z,21.20
2018-09-30T02:22:31.784Z,21.25
2018-09-30T02:23:35.196Z,21.30
2018-09-30T02:24:38.622Z,21.38
2018-09-30T02:25:42.125Z,21.45
2018-09-30T02:26:45.634Z,21.48
2018-09-30T02:27:49.097Z,21.52
2018-09-30T02:28:52.594Z,21.55
2018-09-30T02:29:56.004Z,21.55
2018-09-30T02:30:59.462Z,21.60
2018-09-30T02:32:02.915Z,21.63
2018-09-30T02:33:06.391Z,21.62
2018-09-30T02:34:09.857Z,21.64
2018-09-30T02:35:13.266Z,21.64
2018-09-30T02:36:16.765Z,21.65
2018-09-30T02:37:20.201Z,21.65
2018-09-30T02:38:23.643Z,21.64
2018-09-30T02:39:27.075Z,21.64
2018-09-30T02:40:30.498Z,21.61
2018-09-30T02:41:33.970Z,21.63
2018-09-30T02:42:37.454Z,21.62
2018-09-30T02:43:41.095Z,21.60
2018-09-30T02:44:44.573Z,21.59
2018-09-30T02:45:48.038Z,21.59
2018-09-30T02:46:51.489Z,21.57
2018-09-30T02:47:54.922Z,21.56
2018-09-30T02:48:58.339Z,21.54
2018-09-30T02:50:01.785Z,21.52
2018-09-30T02:51:05.366Z,21.52
2018-09-30T02:52:08.763Z,21.51
2018-09-30T02:53:12.216Z,21.48
2018-09-30T02:54:15.634Z,21.46
2018-09-30T02:55:19.035Z,21.46
2018-09-30T02:56:22.504Z,21.45
2018-09-30T02:57:25.959Z,21.43
2018-09-30T02:58:29.354Z,21.42
2018-09-30T02:59:32.780Z,21.40
2018-09-30T03:00:36.215Z,21.39
2018-09-30T03:01:39.720Z,21.37
2018-09-30T03:02:43.137Z,21.37
2018-09-30T03:03:46.550Z,21.35
2018-09-30T03:04:49.994Z,21.34
2018-09-30T03:05:53.395Z,21.32
2018-09-30T03:07:02.074Z,21.32
2018-09-30T03:08:10.927Z,21.31
2018-09-30T03:09:16.148Z,21.29
2018-09-30T03:10:19.585Z,21.29
2018-09-30T03:11:23.068Z,21.27
2018-09-30T03:12:26.554Z,21.25
2018-09-30T03:13:29.974Z,21.26
2018-09-30T03:14:33.399Z,21.24
2018-09-30T03:15:36.841Z,21.23
2018-09-30T03:16:40.451Z,21.22
2018-09-30T03:17:43.933Z,21.22
2018-09-30T03:18:47.347Z,21.20
2018-09-30T03:19:50.847Z,21.19
2018-09-30T03:20:54.263Z,21.19
2018-09-30T03:21:57.705Z,21.18
2018-09-30T03:23:01.145Z,21.18
2018-09-30T03:24:04.589Z,21.17
2018-09-30T03:25:08.009Z,21.15
2018-09-30T03:26:11.430Z,21.15
2018-09-30T03:27:14.847Z,21.17
2018-09-30T03:28:18.300Z,21.26
2018-09-30T03:29:21.768Z,21.28
2018-09-30T03:30:25.185Z,21.33
2018-09-30T03:31:28.635Z,21.38
2018-09-30T03:32:32.053Z,21.43
2018-09-30T03:33:35.519Z,21.50
2018-09-30T03:34:38.981Z,21.56
2018-09-30T03:35:42.401Z,21.59
2018-09-30T03:36:45.876Z,21.63
2018-09-30T03:37:49.315Z,21.65
2018-09-30T03:38:52.773Z,21.69
2018-09-30T03:39:56.188Z,21.71
2018-09-30T03:40:59.661Z,21.72
2018-09-30T03:42:03.148Z,21.73
2018-09-30T03:43:06.635Z,21.73
2018-09-30T03:44:10.083Z,21.76
2018-09-30T03:45:13.535Z,21.75
2018-09-30T03:46:16.999Z,21.73
2018-09-30T03:47:20.420Z,21.72
2018-09-30T03:48:23.869Z,21.70
2018-09-30T03:49:27.266Z,21.70
2018-09-30T03:50:30.724Z,21.69
2018-09-30T03:51:34.154Z,21.67
2018-09-30T03:52:37.585Z,21.67
2018-09-30T03:53:41.021Z,21.65
2018-09-30T03:54:44.456Z,21.63
2018-09-30T03:55:47.875Z,21.62
2018-09-30T03:56:51.276Z,21.59
2018-09-30T03:57:54.672Z,21.57
2018-09-30T03:58:58.116Z,21.55
2018-09-30T04:00:01.783Z,21.55
2018-09-30T04:01:05.239Z,21.53
2018-09-30T04:02:08.686Z,21.52
2018-09-30T04:03:12.071Z,21.49
2018-09-30T04:04:15.508Z,21.47
2018-09-30T04:05:18.957Z,21.45
2018-09-30T04:06:22.364Z,21.45
2018-09-30T04:07:25.796Z,21.42
2018-09-30T04:08:29.207Z,21.40
2018-09-30T04:09:32.733Z,21.37
2018-09-30T04:10:36.110Z,21.35
2018-09-30T04:11:39.552Z,21.34
2018-09-30T04:12:42.990Z,21.32
2018-09-30T04:13:46.400Z,21.31
2018-09-30T04:14:49.803Z,21.28
2018-09-30T04:15:53.245Z,21.26
2018-09-30T04:16:56.740Z,21.26
2018-09-30T04:18:00.140Z,21.20
2018-09-30T04:19:03.624Z,21.24
2018-09-30T04:20:07.111Z,21.23
2018-09-30T04:21:10.564Z,21.21
2018-09-30T04:22:13.998Z,21.17
2018-09-30T04:23:17.454Z,21.21
2018-09-30T04:24:20.959Z,21.19
2018-09-30T04:25:24.402Z,21.18
2018-09-30T04:26:27.822Z,21.18
2018-09-30T04:27:31.240Z,21.16
2018-09-30T04:28:34.697Z,21.15
2018-09-30T04:29:38.163Z,21.16
2018-09-30T04:30:41.622Z,21.16
2018-09-30T04:31:45.029Z,21.16
2018-09-30T04:32:48.492Z,21.18
2018-09-30T04:33:51.973Z,21.22
2018-09-30T04:34:55.373Z,21.26
2018-09-30T04:35:58.816Z,21.30
2018-09-30T04:37:02.465Z,21.37
2018-09-30T04:38:06.201Z,21.44
2018-09-30T04:39:10.081Z,21.47
2018-09-30T04:40:13.503Z,21.53
2018-09-30T04:41:16.958Z,21.56
2018-09-30T04:42:20.440Z,21.59
2018-09-30T04:43:23.895Z,21.60
2018-09-30T04:44:27.321Z,21.62
2018-09-30T04:45:30.735Z,21.63
2018-09-30T04:46:34.187Z,21.67
2018-09-30T04:47:37.594Z,21.67
2018-09-30T04:48:41.007Z,21.65
2018-09-30T04:49:44.444Z,21.68
2018-09-30T04:50:47.910Z,21.69
2018-09-30T04:51:51.335Z,21.69
2018-09-30T04:52:54.774Z,21.69
2018-09-30T04:53:58.188Z,21.68
2018-09-30T04:55:01.602Z,21.66
2018-09-30T04:56:05.032Z,21.66
2018-09-30T04:57:08.489Z,21.65
2018-09-30T04:58:11.900Z,21.63
2018-09-30T04:59:15.408Z,21.62
2018-09-30T05:00:18.848Z,21.63
2018-09-30T05:01:22.298Z,21.61
2018-09-30T05:02:25.742Z,21.58
2018-09-30T05:03:29.199Z,21.57
2018-09-30T05:04:32.659Z,21.56
2018-09-30T05:05:36.102Z,21.55
2018-09-30T05:06:39.520Z,21.55
2018-09-30T05:07:42.955Z,21.53
2018-09-30T05:08:46.395Z,21.52
2018-09-30T05:09:49.829Z,21.50
2018-09-30T05:10:53.247Z,21.49
2018-09-30T05:11:56.666Z,21.47
2018-09-30T05:13:00.086Z,21.45
2018-09-30T05:14:03.482Z,21.43
2018-09-30T05:15:06.954Z,21.42
2018-09-30T05:16:10.463Z,21.40
2018-09-30T05:17:13.801Z,21.39
2018-09-30T05:18:17.234Z,21.37
2018-09-30T05:19:20.679Z,21.36
2018-09-30T05:20:24.144Z,21.32
2018-09-30T05:21:27.638Z,21.33
2018-09-30T05:22:31.063Z,21.33
2018-09-30T05:23:34.496Z,21.29
2018-09-30T05:24:37.945Z,21.29
2018-09-30T05:25:41.367Z,21.29
2018-09-30T05:26:44.819Z,21.27
2018-09-30T05:27:48.279Z,21.26
2018-09-30T05:28:51.752Z,21.24
2018-09-30T05:29:55.197Z,21.24
2018-09-30T05:30:58.687Z,21.22
2018-09-30T05:32:02.142Z,21.23
2018-09-30T05:33:05.582Z,21.22
2018-09-30T05:34:09.029Z,21.20
2018-09-30T05:35:12.446Z,21.20
2018-09-30T05:36:15.871Z,21.20
2018-09-30T05:37:19.366Z,21.23
2018-09-30T05:38:22.739Z,21.25
2018-09-30T05:39:26.195Z,21.26
2018-09-30T05:40:29.640Z,21.30
2018-09-30T05:41:33.084Z,21.35
2018-09-30T05:42:36.524Z,21.40
2018-09-30T05:43:39.981Z,21.43
2018-09-30T05:44:44.096Z,21.48
2018-09-30T05:45:47.549Z,21.51
2018-09-30T05:46:51.035Z,21.53
2018-09-30T05:47:54.457Z,21.58
2018-09-30T05:48:57.921Z,21.59
2018-09-30T05:50:01.347Z,21.62
2018-09-30T05:51:04.778Z,21.63
2018-09-30T05:52:08.260Z,21.63
2018-09-30T05:53:11.709Z,21.61
2018-09-30T05:54:15.352Z,21.61
2018-09-30T05:55:18.755Z,21.61
2018-09-30T05:56:22.196Z,21.61
2018-09-30T05:57:25.661Z,21.62
2018-09-30T05:58:29.081Z,21.59
2018-09-30T05:59:32.517Z,21.58
2018-09-30T06:00:35.961Z,21.58
2018-09-30T06:01:39.624Z,21.57
2018-09-30T06:02:43.047Z,21.55
2018-09-30T06:03:46.669Z,21.54
2018-09-30T06:04:50.150Z,21.50
2018-09-30T06:05:53.572Z,21.51
2018-09-30T06:06:56.989Z,21.49
2018-09-30T06:08:00.461Z,21.48
2018-09-30T06:09:05.153Z,21.45
2018-09-30T06:10:08.624Z,21.44
2018-09-30T06:11:12.078Z,21.43
2018-09-30T06:12:15.510Z,21.40
2018-09-30T06:13:18.941Z,21.36
2018-09-30T06:14:22.453Z,21.36
2018-09-30T06:15:25.882Z,21.34
2018-09-30T06:16:29.332Z,21.33
2018-09-30T06:17:32.812Z,21.32
2018-09-30T06:18:36.233Z,21.31
2018-09-30T06:19:39.791Z,21.29
2018-09-30T06:20:43.229Z,21.29
2018-09-30T06:21:46.707Z,21.28
2018-09-30T06:22:50.181Z,21.28
2018-09-30T06:23:53.632Z,21.26
2018-09-30T06:24:57.087Z,21.27
2018-09-30T06:26:00.604Z,21.26
2018-09-30T06:27:04.047Z,21.25
2018-09-30T06:28:07.521Z,21.24
2018-09-30T06:29:11.118Z,21.23
2018-09-30T06:30:14.599Z,21.24
2018-09-30T06:31:18.020Z,21.22
2018-09-30T06:32:21.463Z,21.22
2018-09-30T06:33:24.906Z,21.24
2018-09-30T06:34:28.383Z,21.23
2018-09-30T06:35:31.824Z,21.28
2018-09-30T06:36:35.323Z,21.30
2018-09-30T06:37:38.746Z,21.34
2018-09-30T06:38:42.210Z,21.39
2018-09-30T06:39:45.713Z,21.42
2018-09-30T06:40:49.164Z,21.36
2018-09-30T06:41:52.649Z,21.38
2018-09-30T06:42:56.080Z,21.35
2018-09-30T06:43:59.568Z,21.33
2018-09-30T06:45:03.203Z,21.30
2018-09-30T06:46:06.852Z,21.27
2018-09-30T06:47:10.350Z,21.20
2018-09-30T06:48:13.844Z,21.21
2018-09-30T06:49:17.315Z,21.19
2018-09-30T06:50:20.887Z,21.12
2018-09-30T06:51:25.243Z,21.11
2018-09-30T06:52:28.753Z,21.09
2018-09-30T06:53:32.222Z,21.06
2018-09-30T06:54:35.705Z,21.03
2018-09-30T06:55:39.153Z,21.05
2018-09-30T06:56:42.752Z,20.99
2018-09-30T06:57:46.289Z,20.95
2018-09-30T06:58:49.828Z,20.93
2018-09-30T06:59:53.344Z,20.91
2018-09-30T07:00:56.781Z,20.87
2018-09-30T07:02:00.285Z,20.86
2018-09-30T07:03:03.936Z,20.81
2018-09-30T07:04:07.523Z,20.78
2018-09-30T07:05:11.006Z,20.66
2018-09-30T07:06:14.853Z,20.70
2018-09-30T07:07:18.309Z,20.67
2018-09-30T07:08:21.767Z,20.65
2018-09-30T07:09:25.201Z,20.65
2018-09-30T07:10:28.628Z,20.64
2018-09-30T07:11:32.200Z,20.65
2018-09-30T07:12:35.730Z,20.65
2018-09-30T07:13:39.256Z,20.66
2018-09-30T07:14:42.674Z,20.67
2018-09-30T07:15:46.159Z,20.66
2018-09-30T07:16:49.615Z,20.67
2018-09-30T07:17:53.058Z,20.65
2018-09-30T07:18:56.487Z,20.65
2018-09-30T07:19:59.931Z,20.66
2018-09-30T07:21:03.455Z,20.64
2018-09-30T07:22:06.890Z,20.63
2018-09-30T07:23:10.667Z,20.64
2018-09-30T07:24:14.138Z,20.63
2018-09-30T07:25:17.750Z,20.63
2018-09-30T07:26:21.232Z,20.63
2018-09-30T07:27:24.760Z,20.63
2018-09-30T07:28:28.209Z,20.62
2018-09-30T07:29:31.644Z,20.61
2018-09-30T07:30:35.075Z,20.61
2018-09-30T07:31:38.526Z,20.60
2018-09-30T07:32:42.064Z,20.60
2018-09-30T07:33:45.541Z,20.58
2018-09-30T07:34:49.173Z,20.58
2018-09-30T07:35:52.654Z,20.56
2018-09-30T07:36:56.099Z,20.56
2018-09-30T07:37:59.523Z,20.55
2018-09-30T07:39:03.045Z,20.51
2018-09-30T07:40:06.506Z,20.53
2018-09-30T07:41:09.963Z,20.53
2018-09-30T07:42:13.452Z,20.53
2018-09-30T07:43:17.018Z,20.51
2018-09-30T07:44:20.496Z,20.49
2018-09-30T07:45:23.969Z,20.47
2018-09-30T07:46:27.417Z,20.44
2018-09-30T07:47:30.828Z,20.43
2018-09-30T07:48:34.495Z,20.40
2018-09-30T07:49:37.895Z,20.38
2018-09-30T07:50:41.356Z,20.35
2018-09-30T07:51:44.786Z,20.33
2018-09-30T07:52:48.360Z,20.31
2018-09-30T07:53:51.811Z,20.30
2018-09-30T07:54:55.241Z,20.27
2018-09-30T07:55:58.730Z,20.27
2018-09-30T07:57:02.154Z,20.28
2018-09-30T07:58:05.613Z,20.28
2018-09-30T07:59:09.355Z,20.28
2018-09-30T08:00:12.782Z,20.32
2018-09-30T08:01:16.334Z,20.32
2018-09-30T08:02:20.353Z,20.37
2018-09-30T08:03:23.903Z,20.38
2018-09-30T08:04:27.352Z,20.37
2018-09-30T08:05:30.774Z,20.36
2018-09-30T08:06:34.229Z,20.35
2018-09-30T08:07:37.640Z,20.33
2018-09-30T08:08:41.130Z,20.31
2018-09-30T08:09:44.569Z,20.28
2018-09-30T08:10:48.037Z,20.26
2018-09-30T08:11:51.457Z,20.24
2018-09-30T08:12:54.869Z,20.23
2018-09-30T08:13:58.412Z,20.22
2018-09-30T08:15:01.855Z,20.22
2018-09-30T08:16:05.302Z,20.22
2018-09-30T08:17:08.691Z,20.21
2018-09-30T08:18:12.141Z,20.21
2018-09-30T08:19:15.618Z,20.20
2018-09-30T08:20:19.055Z,20.21
2018-09-30T08:21:22.603Z,20.21
2018-09-30T08:22:26.037Z,20.20
2018-09-30T08:23:29.517Z,20.21
2018-09-30T08:24:33.010Z,20.21
2018-09-30T08:25:36.473Z,20.21
2018-09-30T08:26:40.050Z,20.20
2018-09-30T08:27:43.593Z,20.19
2018-09-30T08:28:47.158Z,20.20
2018-09-30T08:29:50.796Z,20.18
2018-09-30T08:30:54.332Z,20.16
2018-09-30T08:31:57.740Z,20.14
2018-09-30T08:33:01.153Z,20.12
2018-09-30T08:34:04.637Z,20.11
2018-09-30T08:35:08.151Z,20.10
2018-09-30T08:36:12.707Z,20.08
2018-09-30T08:37:20.339Z,20.07
2018-09-30T08:38:29.836Z,20.06
2018-09-30T08:39:33.307Z,20.05
2018-09-30T08:40:42.171Z,20.04
2018-09-30T08:41:45.665Z,20.03
2018-09-30T08:42:49.225Z,20.02
2018-09-30T08:43:52.710Z,20.02
2018-09-30T08:44:56.258Z,20.01
2018-09-30T08:46:00.288Z,20.01
2018-09-30T08:47:03.725Z,20.00
2018-09-30T08:48:07.176Z,20.00
2018-09-30T08:49:10.719Z,20.00
2018-09-30T08:50:14.456Z,20.00
2018-09-30T08:51:18.094Z,20.00
2018-09-30T08:52:21.573Z,20.00
2018-09-30T08:53:25.449Z,20.01
2018-09-30T08:54:28.971Z,20.01
2018-09-30T08:55:32.414Z,20.01
2018-09-30T08:56:35.907Z,20.02
2018-09-30T08:57:39.406Z,20.02
2018-09-30T08:58:42.820Z,20.03
2018-09-30T08:59:46.320Z,20.02
2018-09-30T09:00:50.166Z,20.02
2018-09-30T09:01:53.785Z,20.03
2018-09-30T09:02:57.267Z,20.04
2018-09-30T09:04:00.712Z,20.04
2018-09-30T09:05:04.219Z,20.04
2018-09-30T09:06:07.640Z,20.04
2018-09-30T09:07:11.257Z,20.04
2018-09-30T09:08:14.712Z,20.05
2018-09-30T09:09:18.179Z,20.05
2018-09-30T09:10:21.661Z,20.06
2018-09-30T09:11:25.266Z,20.05
2018-09-30T09:12:28.744Z,20.05
2018-09-30T09:13:32.268Z,20.06
2018-09-30T09:14:35.725Z,20.07
2018-09-30T09:15:39.282Z,20.05
2018-09-30T09:16:42.939Z,20.05
2018-09-30T09:17:47.351Z,20.04
2018-09-30T09:18:50.983Z,20.04
2018-09-30T09:19:54.584Z,20.03
2018-09-30T09:20:58.113Z,20.05
2018-09-30T09:22:01.597Z,20.05
2018-09-30T09:23:05.063Z,20.06
2018-09-30T09:24:08.586Z,20.07
2018-09-30T09:25:12.078Z,20.08
2018-09-30T09:26:15.567Z,20.08
2018-09-30T09:27:19.309Z,20.10
2018-09-30T09:28:22.773Z,20.09
2018-09-30T09:29:26.204Z,20.11
2018-09-30T09:30:29.646Z,20.10
2018-09-30T09:31:33.192Z,20.11
2018-09-30T09:32:37.222Z,20.12
2018-09-30T09:33:40.673Z,20.13
2018-09-30T09:34:44.113Z,20.12
2018-09-30T09:35:47.901Z,20.14
2018-09-30T09:36:51.339Z,20.14
2018-09-30T09:37:54.866Z,20.15
2018-09-30T09:38:58.255Z,20.14
2018-09-30T09:40:01.699Z,20.15
2018-09-30T09:41:05.338Z,20.15
2018-09-30T09:42:08.884Z,20.14
2018-09-30T09:43:12.325Z,20.15
2018-09-30T09:44:15.860Z,20.15
2018-09-30T09:45:19.354Z,20.14
2018-09-30T09:46:22.876Z,20.15
2018-09-30T09:47:26.331Z,20.14
2018-09-30T09:48:29.750Z,20.14
2018-09-30T09:49:33.252Z,20.13
2018-09-30T09:50:36.866Z,20.14
2018-09-30T09:51:40.985Z,20.13
2018-09-30T09:52:44.525Z,20.14
2018-09-30T09:53:47.960Z,20.13
2018-09-30T09:54:51.420Z,20.14
2018-09-30T09:55:54.867Z,20.14
2018-09-30T09:56:58.300Z,20.13
2018-09-30T09:58:01.829Z,20.13
2018-09-30T09:59:05.506Z,20.12
2018-09-30T10:00:09.792Z,20.12
2018-09-30T10:01:13.283Z,20.13
2018-09-30T10:02:16.745Z,20.13
2018-09-30T10:03:20.195Z,20.12
2018-09-30T10:04:23.619Z,20.12
2018-09-30T10:05:27.083Z,20.13
2018-09-30T10:06:30.517Z,20.12
2018-09-30T10:07:34.062Z,20.12
2018-09-30T10:08:37.548Z,20.11
2018-09-30T10:09:40.994Z,20.11
2018-09-30T10:10:45.419Z,20.12
2018-09-30T10:11:48.982Z,20.12
2018-09-30T10:12:52.457Z,20.10
2018-09-30T10:13:55.885Z,20.11
2018-09-30T10:14:59.290Z,20.12
2018-09-30T10:16:02.724Z,20.11
2018-09-30T10:17:06.217Z,20.11
2018-09-30T10:18:09.723Z,20.11
2018-09-30T10:19:13.254Z,20.10
2018-09-30T10:20:16.713Z,20.11
2018-09-30T10:21:20.174Z,20.11
2018-09-30T10:22:23.669Z,20.11
2018-09-30T10:23:27.114Z,20.11
2018-09-30T10:24:31.033Z,20.11
2018-09-30T10:25:34.496Z,20.11
2018-09-30T10:26:37.939Z,20.11
2018-09-30T10:27:41.409Z,20.11
2018-09-30T10:28:44.831Z,20.11
2018-09-30T10:29:48.253Z,20.11
2018-09-30T10:30:51.975Z,20.11
2018-09-30T10:31:55.373Z,20.12
2018-09-30T10:32:58.853Z,20.12
2018-09-30T10:34:02.390Z,20.12
2018-09-30T10:35:06.047Z,20.11
2018-09-30T10:36:09.545Z,20.12
2018-09-30T10:37:13.137Z,20.13
2018-09-30T10:38:16.611Z,20.12
2018-09-30T10:39:20.444Z,20.13
2018-09-30T10:40:23.862Z,20.12
2018-09-30T10:41:27.286Z,20.12
2018-09-30T10:42:31.355Z,20.12
2018-09-30T10:43:34.820Z,20.12
2018-09-30T10:44:38.211Z,20.14
2018-09-30T10:45:41.632Z,20.13
2018-09-30T10:46:45.622Z,20.15
2018-09-30T10:47:49.167Z,20.14
2018-09-30T10:48:52.579Z,20.14
2018-09-30T10:49:56.025Z,20.14
2018-09-30T10:50:59.456Z,20.13
2018-09-30T10:52:03.043Z,20.14
2018-09-30T10:53:06.536Z,20.14
2018-09-30T10:54:10.005Z,20.15
2018-09-30T10:55:13.494Z,20.14
2018-09-30T10:56:16.936Z,20.13
2018-09-30T10:57:20.389Z,20.13
2018-09-30T10:58:23.857Z,20.13
2018-09-30T10:59:27.405Z,20.11
2018-09-30T11:00:30.969Z,20.10
2018-09-30T11:01:34.476Z,20.09
2018-09-30T11:02:37.932Z,20.08
2018-09-30T11:03:41.473Z,20.07
2018-09-30T11:04:44.937Z,20.07
2018-09-30T11:05:48.490Z,20.08
2018-09-30T11:06:51.896Z,20.06
2018-09-30T11:07:55.344Z,20.05
2018-09-30T11:08:58.812Z,20.05
2018-09-30T11:10:02.663Z,20.04
2018-09-30T11:11:06.553Z,20.03
2018-09-30T11:12:09.997Z,20.03
2018-09-30T11:13:13.408Z,20.04
2018-09-30T11:14:16.893Z,20.03
2018-09-30T11:15:20.359Z,20.03
2018-09-30T11:16:23.943Z,20.02
2018-09-30T11:17:27.384Z,20.02
2018-09-30T11:18:30.874Z,20.02
2018-09-30T11:19:34.336Z,20.00
2018-09-30T11:20:37.769Z,20.01
2018-09-30T11:21:41.186Z,20.01
2018-09-30T11:22:44.883Z,20.00
2018-09-30T11:23:48.352Z,20.01
2018-09-30T11:24:51.965Z,20.00
2018-09-30T11:25:55.528Z,20.00
2018-09-30T11:26:58.954Z,20.00
2018-09-30T11:28:02.538Z,19.99
2018-09-30T11:29:06.670Z,20.00
2018-09-30T11:30:10.117Z,19.99
2018-09-30T11:31:13.528Z,19.99
2018-09-30T11:32:17.195Z,20.00
2018-09-30T11:33:20.658Z,19.99
2018-09-30T11:34:24.118Z,20.00
2018-09-30T11:35:27.574Z,19.99
2018-09-30T11:36:31.104Z,19.99
2018-09-30T11:37:34.555Z,19.99
2018-09-30T11:38:38.141Z,19.98
2018-09-30T11:39:41.588Z,19.98
2018-09-30T11:40:45.230Z,20.00
2018-09-30T11:41:48.904Z,19.98
2018-09-30T11:42:52.683Z,19.98
2018-09-30T11:43:56.128Z,19.98
2018-09-30T11:44:59.873Z,19.98
2018-09-30T11:46:03.552Z,19.99
2018-09-30T11:47:07.054Z,19.97
2018-09-30T11:48:10.525Z,19.99
2018-09-30T11:49:13.999Z,19.98
2018-09-30T11:50:17.430Z,19.97
2018-09-30T11:51:20.993Z,19.98
2018-09-30T11:52:24.386Z,19.98
2018-09-30T11:53:27.799Z,19.98
2018-09-30T11:54:31.222Z,19.97
2018-09-30T11:55:34.637Z,19.97
2018-09-30T11:56:38.031Z,19.97
2018-09-30T11:57:41.467Z,19.97
2018-09-30T11:58:44.893Z,19.97
2018-09-30T11:59:48.313Z,19.97
2018-09-30T12:00:51.771Z,19.97
2018-09-30T12:01:55.175Z,19.97
2018-09-30T12:02:58.624Z,19.97
2018-09-30T12:04:02.065Z,19.96
2018-09-30T12:05:05.615Z,19.96
2018-09-30T12:06:09.044Z,19.95
2018-09-30T12:07:12.437Z,19.95
2018-09-30T12:08:16.297Z,19.95
2018-09-30T12:09:19.755Z,19.95
2018-09-30T12:10:23.203Z,19.94
2018-09-30T12:11:26.912Z,19.93
2018-09-30T12:12:30.366Z,19.93
2018-09-30T12:13:33.875Z,19.94
2018-09-30T12:14:37.303Z,19.93
2018-09-30T12:15:40.742Z,19.93
2018-09-30T12:16:44.160Z,19.93
2018-09-30T12:17:47.608Z,19.93
2018-09-30T12:18:51.121Z,19.94
2018-09-30T12:19:54.469Z,19.94
2018-09-30T12:20:57.888Z,19.94
2018-09-30T12:22:01.426Z,19.93
2018-09-30T12:23:04.878Z,19.94
2018-09-30T12:24:08.634Z,19.94
2018-09-30T12:25:12.072Z,19.94
2018-09-30T12:26:15.528Z,19.94
2018-09-30T12:27:19.012Z,19.94
2018-09-30T12:28:22.433Z,19.92
2018-09-30T12:29:25.865Z,19.93
2018-09-30T12:30:29.278Z,19.93
2018-09-30T12:31:32.791Z,19.92
2018-09-30T12:32:36.210Z,19.93
2018-09-30T12:33:39.677Z,19.92
2018-09-30T12:34:43.068Z,19.93
2018-09-30T12:35:46.540Z,19.92
2018-09-30T12:36:50.000Z,19.91
2018-09-30T12:37:53.449Z,19.92
2018-09-30T12:38:56.889Z,19.91
2018-09-30T12:40:00.359Z,19.92
2018-09-30T12:41:03.780Z,19.91
2018-09-30T12:42:07.208Z,19.92
2018-09-30T12:43:10.626Z,19.91
2018-09-30T12:44:14.061Z,19.92
2018-09-30T12:45:17.497Z,19.93
2018-09-30T12:46:20.947Z,19.94
2018-09-30T12:47:24.546Z,19.95
2018-09-30T12:48:27.932Z,19.95
2018-09-30T12:49:31.438Z,20.00
2018-09-30T12:50:34.885Z,20.01
2018-09-30T12:51:38.383Z,20.00
2018-09-30T12:52:41.806Z,19.99
2018-09-30T12:53:45.238Z,20.00
2018-09-30T12:54:48.912Z,20.01
2018-09-30T12:55:52.356Z,20.01
2018-09-30T12:56:55.784Z,20.02
2018-09-30T12:57:59.247Z,20.02
2018-09-30T12:59:02.693Z,20.02
2018-09-30T13:00:06.754Z,20.02
2018-09-30T13:01:10.187Z,20.02
2018-09-30T13:02:15.471Z,20.03
2018-09-30T13:03:18.919Z,20.03
2018-09-30T13:04:22.387Z,20.04
2018-09-30T13:05:25.897Z,20.03
2018-09-30T13:06:29.360Z,20.03
2018-09-30T13:07:32.811Z,20.04
2018-09-30T13:08:36.281Z,20.04
2018-09-30T13:09:39.756Z,20.04
2018-09-30T13:10:43.208Z,20.04
2018-09-30T13:11:46.858Z,20.04
2018-09-30T13:12:50.309Z,20.04
2018-09-30T13:13:53.822Z,20.04
2018-09-30T13:14:57.250Z,20.04
2018-09-30T13:16:00.678Z,20.06
2018-09-30T13:17:04.245Z,20.06
2018-09-30T13:18:07.721Z,20.06
2018-09-30T13:19:11.150Z,20.07
2018-09-30T13:20:14.622Z,20.08
2018-09-30T13:21:18.133Z,20.10
2018-09-30T13:22:21.586Z,20.13
2018-09-30T13:23:25.354Z,20.17
2018-09-30T13:24:28.770Z,20.20
2018-09-30T13:25:32.276Z,20.24
2018-09-30T13:26:35.730Z,20.28
2018-09-30T13:27:39.157Z,20.33
2018-09-30T13:28:42.610Z,20.37
2018-09-30T13:29:46.090Z,20.40
2018-09-30T13:30:49.601Z,20.44
2018-09-30T13:31:53.065Z,20.46
2018-09-30T13:32:56.579Z,20.48
2018-09-30T13:34:00.191Z,20.51
2018-09-30T13:35:03.631Z,20.52
2018-09-30T13:36:07.096Z,20.54
2018-09-30T13:37:10.557Z,20.56
2018-09-30T13:38:14.057Z,20.59
2018-09-30T13:39:17.590Z,20.62